createdAt,value
2017-03-13T22:38:43.858Z,97.12
2017-03-13T22:39:43.819Z,96.55
2017-03-13T22:40:43.787Z,96.45
2017-03-13T22:41:43.758Z,96.17
2017-03-13T22:42:43.347Z,96.65
2017-03-13T22:43:43.701Z,96.93
2017-03-13T22:44:43.668Z,96.84
2017-03-13T22:45:43.643Z,96.45
2017-03-13T22:46:43.624Z,96.36
2017-03-13T22:47:43.590Z,96.36
2017-03-13T22:48:43.558Z,96.36
2017-03-13T22:49:43.538Z,96.36
2017-03-13T22:50:43.511Z,96.36
2017-03-13T22:51:43.485Z,96.26
2017-03-13T22:52:43.469Z,96.45
2017-03-13T22:53:43.052Z,96.45
2017-03-13T22:54:43.410Z,96.17
2017-03-13T22:55:43.391Z,96.17
2017-03-13T22:56:43.362Z,96.65
2017-03-13T22:57:43.339Z,97.03
2017-03-13T22:58:43.315Z,97.12
2017-03-13T22:59:43.296Z,97.6
2017-03-13T23:00:43.269Z,97.31
2017-03-13T23:01:43.247Z,97.12
2017-03-13T23:02:43.229Z,97.12
2017-03-13T23:03:43.196Z,97.6
2017-03-13T23:04:42.784Z,97.22
2017-03-13T23:05:43.150Z,97.41
2017-03-13T23:06:43.126Z,97.12
2017-03-13T23:07:43.099Z,97.12
2017-03-13T23:08:43.325Z,97.41
2017-03-13T23:09:43.105Z,97.41
2017-03-13T23:10:43.079Z,97.12
2017-03-13T23:11:43.003Z,97.41
2017-03-13T23:12:43.184Z,97.22
2017-03-13T23:13:42.958Z,97.41
2017-03-13T23:14:42.602Z,97.41
2017-03-13T23:15:42.913Z,97.22
2017-03-13T23:16:42.902Z,97.41
2017-03-13T23:17:42.862Z,97.41
2017-03-13T23:18:42.841Z,97.41
2017-03-13T23:19:42.816Z,97.22
2017-03-13T23:20:42.797Z,97.41
2017-03-13T23:21:42.770Z,97.6
2017-03-13T23:22:42.746Z,97.78
2017-03-13T23:23:42.726Z,97.78
2017-03-13T23:24:42.700Z,97.55
2017-03-13T23:25:42.672Z,97.83
2017-03-13T23:26:42.654Z,97.74
2017-03-13T23:27:42.630Z,97.55
2017-03-13T23:28:42.619Z,97.55
2017-03-13T23:29:42.584Z,97.92
2017-03-13T23:30:42.561Z,97.55
2017-03-13T23:31:42.536Z,98.31
2017-03-13T23:32:42.512Z,98.12
2017-03-13T23:33:42.501Z,98.12
2017-03-13T23:34:42.476Z,98.21
2017-03-13T23:35:42.455Z,97.55
2017-03-13T23:36:42.416Z,98.12
2017-03-13T23:37:42.396Z,98.12
2017-03-13T23:38:42.389Z,98.12
2017-03-13T23:39:42.349Z,97.92
2017-03-13T23:40:42.325Z,97.83
2017-03-13T23:41:42.297Z,98.12
2017-03-13T23:42:42.279Z,97.92
2017-03-13T23:43:42.251Z,97.92
2017-03-13T23:44:42.235Z,97.55
2017-03-13T23:45:42.205Z,97.92
2017-03-13T23:46:42.181Z,97.83
2017-03-13T23:47:42.158Z,97.92
2017-03-13T23:48:42.135Z,98.12
2017-03-13T23:49:42.117Z,98.12
2017-03-13T23:50:42.091Z,97.83
2017-03-13T23:51:42.063Z,98.02
2017-03-13T23:52:42.044Z,98.12
2017-03-13T23:53:41.638Z,98.31
2017-03-13T23:54:41.994Z,98.02
2017-03-13T23:55:41.972Z,98.59
2017-03-13T23:56:41.948Z,98.12
2017-03-13T23:57:41.958Z,98.97
2017-03-13T23:58:41.949Z,99.07
2017-03-13T23:59:41.877Z,98.69
